createdAt,value
2022-10-06T00:00:44.650Z,5.84
2022-10-06T00:03:14.770Z,5.83
2022-10-06T00:05:46.493Z,5.94
2022-10-06T00:08:17.276Z,5.86
2022-10-06T00:10:47.661Z,5.78
2022-10-06T00:13:19.501Z,5.58
2022-10-06T00:15:49.403Z,5.72
2022-10-06T00:18:19.758Z,5.53
2022-10-06T00:20:56.610Z,5.41
2022-10-06T00:23:28.419Z,5.32
2022-10-06T00:26:04.701Z,5.45
2022-10-06T00:28:37.394Z,5.43
2022-10-06T00:31:08.338Z,5.62
2022-10-06T00:33:39.050Z,5.84
2022-10-06T00:36:10.216Z,5.74
2022-10-06T00:38:41.060Z,5.86
2022-10-06T00:41:16.371Z,5.87
2022-10-06T00:43:51.448Z,6.16
2022-10-06T00:46:27.108Z,6.54
2022-10-06T00:49:04.887Z,6.55
2022-10-06T00:51:36.554Z,6.84
2022-10-06T00:54:07.543Z,6.80
2022-10-06T00:56:40.682Z,6.71
2022-10-06T00:59:15.631Z,7.08
2022-10-06T01:02:04.567Z,7.02
2022-10-06T01:04:38.669Z,6.72
2022-10-06T01:07:10.293Z,6.71
2022-10-06T01:09:40.455Z,6.34
2022-10-06T01:12:11.024Z,6.21
2022-10-06T01:14:43.432Z,6.70
2022-10-06T01:17:18.685Z,6.58
2022-10-06T01:19:51.062Z,6.42
2022-10-06T01:22:29.444Z,6.24
2022-10-06T01:25:00.917Z,6.15
2022-10-06T01:27:36.157Z,6.29
2022-10-06T01:30:09.143Z,6.72
2022-10-06T01:32:41.663Z,7.18
2022-10-06T01:35:12.482Z,7.25
2022-10-06T01:37:45.439Z,7.34
2022-10-06T01:40:15.557Z,7.23
2022-10-06T01:42:45.652Z,7.15
2022-10-06T01:45:15.530Z,7.04
2022-10-06T01:47:45.196Z,7.38
2022-10-06T01:50:15.139Z,7.39
2022-10-06T01:52:48.470Z,7.34
2022-10-06T01:55:22.998Z,7.21
2022-10-06T01:57:54.395Z,7.15
2022-10-06T02:00:24.730Z,7.05
2022-10-06T02:02:54.740Z,7.15
2022-10-06T02:05:25.162Z,6.99
2022-10-06T02:08:01.302Z,7.20
2022-10-06T02:10:34.146Z,7.21
2022-10-06T02:13:07.729Z,7.20
2022-10-06T02:15:39.361Z,7.31
2022-10-06T02:18:09.059Z,7.40
2022-10-06T02:20:38.989Z,7.37
2022-10-06T02:23:10.547Z,7.43
2022-10-06T02:25:40.642Z,7.48
2022-10-06T02:28:10.772Z,7.65
2022-10-06T02:30:40.990Z,7.87
2022-10-06T02:33:11.056Z,8.04
2022-10-06T02:35:43.270Z,8.01
2022-10-06T02:38:15.026Z,8.15
2022-10-06T02:40:46.390Z,8.04
2022-10-06T02:43:16.729Z,7.94
2022-10-06T02:46:15.018Z,8.17
2022-10-06T02:48:50.776Z,8.14
2022-10-06T02:51:23.130Z,7.88
2022-10-06T02:53:55.738Z,7.78
2022-10-06T02:59:18.332Z,8.01
2022-10-06T03:02:11.585Z,8.04
2022-10-06T03:09:19.863Z,8.17
2022-10-06T03:11:54.771Z,8.30
2022-10-06T03:14:33.515Z,8.27
2022-10-06T03:17:03.924Z,8.18
2022-10-06T03:19:34.782Z,8.12
2022-10-06T03:22:05.364Z,8.12
2022-10-06T03:25:17.321Z,8.17
2022-10-06T03:27:48.242Z,8.10
2022-10-06T03:30:18.893Z,8.24
2022-10-06T03:32:50.007Z,8.37
2022-10-06T03:35:20.469Z,8.40
2022-10-06T03:37:50.650Z,8.44
2022-10-06T03:40:22.889Z,8.49
2022-10-06T03:42:53.163Z,8.57
2022-10-06T03:45:58.935Z,8.42
2022-10-06T03:48:29.422Z,8.11
2022-10-06T03:51:00.104Z,8.06
2022-10-06T03:53:32.449Z,8.29
2022-10-06T03:56:08.355Z,8.37
2022-10-06T03:58:44.083Z,8.09
2022-10-06T04:01:45.396Z,8.47
2022-10-06T04:04:18.360Z,8.38
2022-10-06T04:06:51.988Z,8.60
2022-10-06T04:09:23.210Z,8.52
2022-10-06T04:11:58.034Z,8.33
2022-10-06T04:14:42.974Z,7.93
2022-10-06T04:17:19.854Z,8.42
2022-10-06T04:19:53.301Z,8.47
2022-10-06T04:22:25.910Z,8.72
2022-10-06T04:25:13.080Z,8.73
2022-10-06T04:28:20.629Z,9.08
2022-10-06T04:30:59.754Z,9.20
2022-10-06T04:33:31.165Z,9.22
2022-10-06T04:36:08.258Z,9.30
2022-10-06T04:38:40.721Z,9.06
2022-10-06T04:41:22.718Z,8.87
2022-10-06T04:44:06.254Z,9.17
2022-10-06T04:47:01.929Z,8.99
2022-10-06T04:50:02.327Z,9.95
2022-10-06T04:52:34.788Z,10.42
2022-10-06T04:55:36.634Z,10.31
2022-10-06T04:58:34.212Z,9.86
2022-10-06T05:01:17.444Z,9.96
2022-10-06T05:03:52.245Z,9.91
2022-10-06T05:06:25.179Z,9.70
2022-10-06T05:09:00.028Z,9.96
2022-10-06T05:11:32.334Z,10.32
2022-10-06T05:14:06.618Z,10.43
2022-10-06T05:17:12.061Z,10.48
2022-10-06T05:19:47.232Z,10.09
2022-10-06T05:22:43.605Z,9.89
2022-10-06T05:25:14.931Z,9.68
2022-10-06T05:34:17.985Z,10.02
2022-10-06T05:37:44.177Z,9.88
2022-10-06T05:40:54.571Z,9.64
2022-10-06T05:43:58.657Z,9.70
2022-10-06T05:47:46.469Z,9.96
2022-10-06T05:50:21.253Z,9.73
2022-10-06T05:53:13.475Z,9.68
2022-10-06T05:55:51.721Z,9.59
2022-10-06T05:58:41.369Z,9.94
2022-10-06T06:01:23.388Z,10.30
2022-10-06T06:04:08.459Z,10.42
2022-10-06T06:07:38.784Z,10.55
2022-10-06T06:10:18.546Z,10.56
2022-10-06T06:13:01.707Z,10.44
2022-10-06T06:16:06.160Z,10.51
2022-10-06T06:18:44.259Z,10.49
2022-10-06T06:21:31.192Z,10.41
2022-10-06T06:24:06.855Z,10.53
2022-10-06T06:27:07.587Z,10.69
2022-10-06T06:29:42.085Z,10.72
2022-10-06T06:32:26.317Z,10.66
2022-10-06T06:35:26.981Z,10.81
2022-10-06T06:38:20.383Z,10.69
2022-10-06T06:40:55.204Z,10.80
2022-10-06T06:43:34.619Z,10.94
2022-10-06T06:47:08.767Z,10.81
2022-10-06T06:49:46.628Z,10.54
2022-10-06T06:52:21.976Z,10.35
2022-10-06T06:54:56.386Z,10.29
2022-10-06T06:57:30.214Z,10.27
2022-10-06T07:00:09.030Z,10.47
2022-10-06T07:03:01.175Z,10.52
2022-10-06T07:05:42.065Z,10.71
2022-10-06T07:08:29.300Z,10.84
2022-10-06T07:11:03.169Z,10.66
2022-10-06T07:13:50.915Z,10.64
2022-10-06T07:16:40.635Z,10.49
2022-10-06T07:19:53.158Z,10.53
2022-10-06T07:22:47.915Z,10.35
2022-10-06T07:25:26.456Z,10.48
2022-10-06T07:28:15.605Z,10.51
2022-10-06T07:31:10.884Z,10.60
2022-10-06T07:33:43.231Z,10.76
2022-10-06T07:36:21.133Z,10.98
2022-10-06T07:38:51.907Z,10.89
2022-10-06T07:41:22.404Z,11.06
2022-10-06T07:43:56.779Z,10.90
2022-10-06T07:46:30.072Z,11.11
2022-10-06T07:49:06.093Z,11.29
2022-10-06T07:51:38.026Z,11.20
2022-10-06T07:54:09.475Z,11.13
2022-10-06T07:56:52.090Z,11.20
2022-10-06T07:59:23.120Z,11.44
2022-10-06T08:01:53.159Z,11.51
2022-10-06T08:04:29.653Z,11.85
2022-10-06T08:07:18.431Z,12.18
2022-10-06T08:09:49.570Z,12.33
2022-10-06T08:12:38.133Z,12.51
2022-10-06T08:15:20.589Z,12.60
2022-10-06T08:17:54.759Z,12.63
2022-10-06T08:20:27.844Z,12.41
2022-10-06T08:22:59.115Z,12.36
2022-10-06T08:25:32.135Z,11.91
2022-10-06T08:28:02.343Z,11.91
2022-10-06T08:30:35.287Z,12.07
2022-10-06T08:33:10.873Z,12.40
2022-10-06T08:35:43.809Z,12.61
2022-10-06T08:38:15.258Z,12.49
2022-10-06T08:40:47.907Z,12.27
2022-10-06T08:43:25.172Z,12.08
2022-10-06T08:46:05.548Z,11.76
2022-10-06T08:54:00.977Z,11.64
2022-10-06T09:05:29.849Z,11.42
2022-10-06T09:08:25.835Z,11.36
2022-10-06T09:11:44.117Z,11.30
2022-10-06T09:14:21.036Z,11.26
2022-10-06T09:17:09.385Z,11.18
2022-10-06T09:19:45.647Z,10.97
2022-10-06T09:22:22.728Z,10.87
2022-10-06T09:25:06.234Z,10.98
2022-10-06T09:27:41.217Z,10.86
2022-10-06T09:30:14.648Z,10.86
2022-10-06T09:32:49.069Z,10.70
2022-10-06T09:35:23.836Z,10.70
2022-10-06T09:38:08.351Z,10.73
2022-10-06T09:40:45.580Z,10.92
2022-10-06T09:43:29.452Z,10.79
2022-10-06T09:46:23.089Z,10.69
2022-10-06T09:49:32.332Z,10.63
2022-10-06T09:52:20.181Z,10.63
2022-10-06T09:55:24.078Z,10.75
2022-10-06T09:57:58.662Z,10.78
2022-10-06T10:00:35.077Z,10.74
2022-10-06T10:03:08.656Z,10.77
2022-10-06T10:05:42.662Z,10.60
2022-10-06T10:08:26.346Z,10.58
2022-10-06T10:11:28.298Z,10.58
2022-10-06T10:14:06.102Z,10.55
2022-10-06T10:16:53.117Z,10.41
2022-10-06T10:19:33.781Z,10.44
2022-10-06T10:22:05.854Z,10.58
2022-10-06T10:24:55.723Z,10.79
2022-10-06T10:27:37.569Z,10.95
2022-10-06T10:30:11.923Z,11.31
2022-10-06T10:32:51.423Z,11.57
2022-10-06T10:35:28.048Z,11.87
2022-10-06T10:38:05.849Z,12.08
2022-10-06T10:40:40.544Z,12.33
2022-10-06T10:43:20.262Z,12.21
2022-10-06T10:45:55.584Z,12.03
2022-10-06T10:48:34.152Z,11.95
2022-10-06T10:51:08.708Z,11.97
2022-10-06T10:53:47.816Z,12.05
2022-10-06T10:56:22.980Z,12.35
2022-10-06T10:58:56.995Z,12.40
2022-10-06T11:01:35.592Z,12.53
2022-10-06T11:04:12.931Z,12.78
2022-10-06T11:07:01.237Z,12.82
2022-10-06T11:09:41.032Z,13.12
2022-10-06T11:12:20.483Z,13.59
2022-10-06T11:15:08.109Z,13.13
2022-10-06T11:17:46.176Z,12.70
2022-10-06T11:20:48.615Z,12.39
2022-10-06T11:23:45.090Z,12.46
2022-10-06T11:26:25.693Z,12.58
2022-10-06T11:29:01.627Z,12.49
2022-10-06T11:31:36.282Z,12.41
2022-10-06T11:34:07.938Z,12.32
2022-10-06T11:36:49.655Z,12.28
2022-10-06T11:39:28.525Z,12.35
2022-10-06T11:47:01.359Z,12.29
2022-10-06T11:50:02.331Z,12.15
2022-10-06T11:52:57.619Z,12.13
2022-10-06T11:56:47.197Z,12.02
2022-10-06T12:03:50.861Z,11.80
2022-10-06T12:07:40.968Z,11.72
2022-10-06T12:10:50.055Z,11.64
2022-10-06T12:17:06.008Z,11.61
2022-10-06T12:19:35.588Z,11.70
2022-10-06T12:22:19.628Z,11.86
2022-10-06T12:25:17.043Z,12.04
2022-10-06T12:28:11.362Z,11.90
2022-10-06T12:31:30.194Z,11.90
2022-10-06T12:34:10.410Z,12.05
2022-10-06T12:36:45.169Z,12.09
2022-10-06T12:39:24.603Z,12.12
2022-10-06T12:45:32.714Z,12.34
2022-10-06T12:48:22.470Z,12.04
2022-10-06T12:55:41.717Z,11.92
2022-10-06T12:58:19.729Z,11.80
2022-10-06T13:00:53.686Z,11.70
2022-10-06T13:03:27.629Z,11.69
2022-10-06T13:06:03.620Z,11.74
2022-10-06T13:08:36.015Z,11.78
2022-10-06T13:11:16.929Z,11.74
2022-10-06T13:14:15.035Z,11.79
2022-10-06T13:16:57.529Z,11.78
2022-10-06T13:19:31.687Z,11.80
2022-10-06T13:22:04.787Z,11.89
2022-10-06T13:24:41.572Z,12.04
2022-10-06T13:27:21.639Z,11.89
2022-10-06T13:30:13.841Z,11.79
2022-10-06T13:36:17.979Z,11.80
2022-10-06T13:38:48.707Z,11.92
2022-10-06T13:41:28.516Z,11.83
2022-10-06T13:44:02.159Z,11.75
2022-10-06T13:46:44.644Z,11.65
2022-10-06T13:49:22.789Z,11.69
2022-10-06T13:52:00.661Z,11.72
2022-10-06T13:54:49.866Z,11.63
2022-10-06T13:58:17.610Z,11.63
2022-10-06T14:00:51.662Z,11.54
2022-10-06T14:03:25.716Z,11.52
2022-10-06T14:06:50.656Z,11.58
2022-10-06T14:09:30.206Z,11.56
2022-10-06T14:12:07.305Z,11.49
2022-10-06T14:14:38.113Z,11.45
2022-10-06T14:17:30.803Z,11.61
2022-10-06T14:20:44.426Z,11.57
2022-10-06T14:23:57.364Z,11.48
2022-10-06T14:26:33.195Z,11.51
2022-10-06T14:29:18.065Z,11.46
2022-10-06T14:31:51.060Z,11.46
2022-10-06T14:34:25.824Z,11.43
2022-10-06T14:37:22.093Z,11.46
2022-10-06T14:39:55.527Z,11.39
2022-10-06T14:42:42.646Z,11.49
2022-10-06T14:45:17.668Z,11.65
2022-10-06T14:47:49.399Z,11.66
2022-10-06T14:50:23.053Z,11.71
2022-10-06T14:53:36.669Z,11.74
2022-10-06T14:58:23.996Z,11.58
2022-10-06T15:01:53.121Z,11.45
2022-10-06T15:04:53.930Z,11.52
2022-10-06T15:07:47.202Z,11.44
2022-10-06T15:10:21.511Z,11.43
2022-10-06T15:12:57.738Z,11.56
2022-10-06T15:16:46.364Z,11.52
2022-10-06T15:19:35.997Z,11.40
2022-10-06T15:22:19.753Z,11.42
2022-10-06T15:35:19.248Z,11.39
2022-10-06T15:37:56.200Z,11.35
2022-10-06T15:40:38.149Z,11.21
2022-10-06T15:43:58.213Z,11.13
2022-10-06T15:46:36.378Z,11.23
2022-10-06T15:49:28.158Z,11.20
2022-10-06T15:52:51.650Z,11.26
2022-10-06T15:55:27.882Z,11.21
2022-10-06T15:57:58.608Z,11.18
2022-10-06T16:00:54.339Z,11.20
2022-10-06T16:04:14.302Z,11.21
2022-10-06T16:08:46.741Z,11.22
2022-10-06T16:12:38.617Z,11.13
2022-10-06T16:16:25.712Z,11.11
2022-10-06T16:19:23.164Z,11.09
2022-10-06T16:22:23.784Z,11.04
2022-10-06T16:25:57.972Z,10.97
2022-10-06T16:42:34.725Z,11.15
2022-10-06T16:45:07.754Z,11.26
2022-10-06T16:47:43.790Z,11.20
2022-10-06T16:50:17.159Z,11.02
2022-10-06T16:53:16.831Z,10.98
2022-10-06T16:56:11.815Z,10.98
2022-10-06T16:58:56.398Z,11.06
2022-10-06T17:01:41.859Z,11.00
2022-10-06T17:04:16.377Z,11.03
2022-10-06T17:06:50.780Z,11.10
2022-10-06T17:09:22.531Z,11.12
2022-10-06T17:11:59.238Z,11.07
2022-10-06T17:15:19.415Z,11.12
2022-10-06T17:18:01.404Z,11.12
2022-10-06T17:20:46.020Z,11.04
2022-10-06T17:23:38.438Z,11.08
2022-10-06T17:26:18.045Z,11.01
2022-10-06T17:28:50.413Z,10.97
2022-10-06T17:31:32.733Z,11.13
2022-10-06T17:34:09.396Z,11.17
2022-10-06T17:39:35.659Z,11.04
2022-10-06T17:42:14.367Z,11.10
2022-10-06T17:45:20.281Z,11.05
2022-10-06T17:48:02.997Z,11.07
2022-10-06T17:50:42.388Z,10.97
2022-10-06T17:53:27.034Z,11.04
2022-10-06T17:55:59.978Z,11.01
2022-10-06T17:58:41.403Z,11.10
2022-10-06T18:01:19.038Z,11.01
2022-10-06T18:03:55.950Z,11.04
2022-10-06T18:06:32.206Z,11.04
2022-10-06T18:09:04.240Z,11.08
2022-10-06T18:11:36.899Z,11.17
2022-10-06T18:14:38.367Z,11.07
2022-10-06T18:17:10.640Z,11.02
2022-10-06T18:19:50.264Z,10.92
2022-10-06T18:22:23.533Z,10.82
2022-10-06T18:27:53.000Z,10.86
2022-10-06T18:30:29.330Z,10.80
2022-10-06T18:36:18.312Z,10.77
2022-10-06T18:38:56.285Z,10.72
2022-10-06T18:41:32.765Z,10.79
2022-10-06T18:44:14.019Z,10.86
2022-10-06T18:47:19.607Z,11.04
2022-10-06T18:50:00.146Z,10.97
2022-10-06T18:53:11.793Z,11.01
2022-10-06T18:55:49.946Z,11.02
2022-10-06T18:58:28.459Z,10.95
2022-10-06T19:00:59.567Z,10.88
2022-10-06T19:03:34.040Z,10.90
2022-10-06T19:06:35.194Z,11.06
2022-10-06T19:09:45.347Z,11.14
2022-10-06T19:12:20.725Z,11.14
2022-10-06T19:14:56.138Z,11.11
2022-10-06T19:17:38.111Z,10.93
2022-10-06T19:20:33.210Z,10.93
2022-10-06T19:23:23.010Z,11.07
2022-10-06T19:26:11.614Z,11.52
2022-10-06T19:28:54.277Z,11.38
2022-10-06T19:31:30.332Z,11.13
2022-10-06T19:34:02.401Z,11.11
2022-10-06T19:37:49.051Z,11.08
2022-10-06T19:45:19.169Z,10.94
2022-10-06T19:52:48.452Z,10.63
2022-10-06T19:56:14.448Z,10.78
2022-10-06T19:59:19.460Z,10.80
2022-10-06T20:01:57.787Z,10.89
2022-10-06T20:04:32.381Z,11.07
2022-10-06T20:07:02.714Z,11.02
2022-10-06T20:09:34.110Z,10.97
2022-10-06T20:12:04.103Z,10.89
2022-10-06T20:14:34.900Z,10.82
2022-10-06T20:17:18.971Z,10.82
2022-10-06T20:19:52.786Z,10.80
2022-10-06T20:22:30.557Z,10.84
2022-10-06T20:25:08.485Z,10.80
2022-10-06T20:27:41.504Z,10.78
2022-10-06T20:30:27.734Z,10.83
2022-10-06T20:33:18.362Z,10.81
2022-10-06T20:35:49.024Z,10.80
2022-10-06T20:38:43.891Z,10.80
2022-10-06T20:41:18.059Z,10.81
2022-10-06T20:44:01.101Z,10.87
2022-10-06T20:46:46.032Z,10.90
2022-10-06T20:49:24.473Z,10.87
2022-10-06T20:56:25.349Z,11.03
2022-10-06T20:59:08.067Z,11.00
2022-10-06T21:01:41.307Z,10.93
2022-10-06T21:04:11.906Z,10.97
2022-10-06T21:06:47.344Z,10.96
2022-10-06T21:09:51.906Z,10.94
2022-10-06T21:12:28.700Z,10.94
2022-10-06T21:15:04.183Z,10.95
2022-10-06T21:17:39.778Z,10.89
2022-10-06T21:20:10.385Z,10.94
2022-10-06T21:22:41.734Z,10.94
2022-10-06T21:25:13.807Z,10.96
2022-10-06T21:27:44.537Z,11.00
2022-10-06T21:30:14.989Z,11.02
2022-10-06T21:32:45.627Z,11.09
2022-10-06T21:35:16.523Z,11.01
2022-10-06T21:37:47.531Z,10.97
2022-10-06T21:40:19.678Z,10.93
2022-10-06T21:42:48.961Z,10.89
2022-10-06T21:45:21.015Z,10.77
2022-10-06T21:47:53.289Z,10.71
2022-10-06T21:50:22.957Z,10.63
2022-10-06T21:52:53.974Z,10.56
2022-10-06T21:55:25.452Z,10.56
2022-10-06T21:57:55.605Z,10.60
2022-10-06T22:00:27.476Z,10.66
2022-10-06T22:02:58.275Z,10.63
2022-10-06T22:05:29.138Z,10.70
2022-10-06T22:08:00.829Z,10.61
2022-10-06T22:10:30.287Z,10.51
2022-10-06T22:13:00.169Z,10.46
2022-10-06T22:15:33.203Z,10.36
2022-10-06T22:18:02.485Z,10.32
2022-10-06T22:20:34.664Z,10.32
2022-10-06T22:23:15.325Z,10.28
2022-10-06T22:25:44.600Z,10.30
2022-10-06T22:28:14.540Z,10.29
2022-10-06T22:30:44.174Z,10.29
2022-10-06T22:33:13.847Z,10.34
2022-10-06T22:35:52.064Z,10.37
2022-10-06T22:38:24.178Z,10.36
2022-10-06T22:40:53.765Z,10.39
2022-10-06T22:43:23.017Z,10.36
2022-10-06T22:45:52.289Z,10.37
2022-10-06T22:48:21.890Z,10.39
2022-10-06T22:50:52.502Z,10.44
2022-10-06T22:53:28.560Z,10.47
2022-10-06T22:56:23.916Z,10.49
2022-10-06T22:58:53.442Z,10.52
2022-10-06T23:01:23.053Z,10.55
2022-10-06T23:03:56.705Z,10.57
2022-10-06T23:06:27.124Z,10.49
2022-10-06T23:08:57.937Z,10.49
2022-10-06T23:11:27.254Z,10.48
2022-10-06T23:13:57.163Z,10.51
2022-10-06T23:16:31.507Z,10.51
2022-10-06T23:19:05.447Z,10.47
2022-10-06T23:21:35.267Z,10.43
2022-10-06T23:24:06.826Z,10.41
2022-10-06T23:26:38.115Z,10.46
2022-10-06T23:29:07.729Z,10.47
2022-10-06T23:31:36.863Z,10.44
2022-10-06T23:34:06.170Z,10.42
2022-10-06T23:36:35.872Z,10.44
2022-10-06T23:39:06.417Z,10.53
2022-10-06T23:41:35.629Z,10.59
2022-10-06T23:44:06.169Z,10.59
2022-10-06T23:46:37.159Z,10.59
2022-10-06T23:49:10.260Z,10.68
2022-10-06T23:51:41.479Z,10.72
2022-10-06T23:54:12.554Z,10.69
2022-10-06T23:56:41.869Z,10.69
2022-10-06T23:59:11.385Z,10.74
